Terminal Aerodrome Forecast
Issued by NWS Springfield, MO

Home | Current Version | Previous Version | Text Only | Print | Product List | Glossary On
Versions: 1 2 3 4 5 6 7 8 9 10 11 12 13 14 15 16 17 18 19 20
001
FTUS43 KSGF 251001 AAA
TAFSGF
TAF AMD
KSGF 251001Z 2510/2606 VRB04KT P6SM SCT050
     FM260000 14004KT P6SM FEW200=

USA.gov is the U.S. government's official web portal to all federal, state and local government web resources and services.